Time;durP1;ratioP1;P1;durP2;ratioP2;P2;SDS_P1;SDS_P2;PMS_P1;PMS_P2;Temp;Humidity;BMP_temperature;BMP_pressure;BME280_temperature;BME280_humidity;BME280_pressure;Samples;Min_cycle;Max_cycle;Signal;HPM_P1;HPM_P2
2023/10/15 00:01:21;;;;;;;2.53;1.90;;;8.50;99.90;;;;;;5063743;28;20193;-53
2023/10/15 00:03:51;;;;;;;3.20;1.80;;;8.60;99.90;;;;;;5069079;28;20223;-53
2023/10/15 00:06:19;;;;;;;5.30;1.80;;;8.70;99.90;;;;;;5068521;28;20226;-53
2023/10/15 00:08:47;;;;;;;2.40;2.20;;;8.80;99.90;;;;;;5072048;28;20226;-52
2023/10/15 00:11:17;;;;;;;3.77;2.17;;;8.80;99.90;;;;;;5073459;28;20539;-53
2023/10/15 00:13:46;;;;;;;5.40;2.03;;;8.90;99.90;;;;;;5073803;28;20323;-52
2023/10/15 00:16:18;;;;;;;4.33;2.30;;;8.90;99.90;;;;;;5072458;28;20194;-54
2023/10/15 00:18:47;;;;;;;7.23;2.60;;;8.90;99.90;;;;;;5069657;28;20598;-52
2023/10/15 00:21:16;;;;;;;4.37;2.17;;;8.90;99.90;;;;;;5066842;28;20236;-51
2023/10/15 00:23:46;;;;;;;3.23;2.00;;;8.90;99.90;;;;;;5070469;28;20307;-52
2023/10/15 00:26:15;;;;;;;6.50;2.50;;;8.80;99.90;;;;;;5068847;28;20216;-54
2023/10/15 00:28:45;;;;;;;3.90;2.30;;;8.80;99.90;;;;;;5074008;28;20220;-53
2023/10/15 00:31:14;;;;;;;2.87;2.00;;;8.80;99.90;;;;;;5069236;28;20196;-53
2023/10/15 00:33:46;;;;;;;4.23;2.20;;;8.70;99.90;;;;;;5070267;28;20690;-54
2023/10/15 00:36:16;;;;;;;7.20;2.10;;;8.70;99.90;;;;;;5072739;28;20223;-54
2023/10/15 00:38:45;;;;;;;4.83;1.97;;;8.70;99.90;;;;;;5071298;28;20274;-54
2023/10/15 00:41:14;;;;;;;3.63;2.00;;;8.70;99.90;;;;;;5074334;28;20227;-54
2023/10/15 00:43:54;;;;;;;2.93;1.80;;;8.70;99.90;;;;;;5071376;28;20671;-53
2023/10/15 00:46:25;;;;;;;1.73;1.70;;;8.70;99.90;;;;;;5083034;28;20192;-52
2023/10/15 00:48:56;;;;;;;2.50;1.87;;;8.60;99.90;;;;;;5071989;28;20188;-51
2023/10/15 00:51:26;;;;;;;4.83;1.90;;;8.60;99.90;;;;;;5070061;28;20228;-54
2023/10/15 00:53:58;;;;;;;4.90;1.70;;;8.50;99.90;;;;;;5072644;28;20224;-53
2023/10/15 00:56:33;;;;;;;6.33;2.30;;;8.40;99.90;;;;;;5068958;28;20258;-53
2023/10/15 00:59:17;;;;;;;3.63;1.60;;;8.40;99.90;;;;;;5066992;28;20231;-53
2023/10/15 01:02:02;;;;;;;2.03;1.87;;;8.30;99.90;;;;;;5073143;28;20219;-53
2023/10/15 01:04:35;;;;;;;5.00;1.67;;;8.20;99.90;;;;;;5074059;28;20196;-53
2023/10/15 01:07:21;;;;;;;1.80;1.70;;;8.10;99.90;;;;;;5073260;28;20542;-54
2023/10/15 01:09:49;;;;;;;2.77;2.10;;;8.10;99.90;;;;;;5067465;28;20232;-55
2023/10/15 01:12:24;;;;;;;4.80;2.20;;;8.00;99.90;;;;;;5071817;28;20219;-54
2023/10/15 01:14:53;;;;;;;3.97;1.90;;;8.00;99.90;;;;;;5068469;28;20216;-53
2023/10/15 01:17:23;;;;;;;3.67;1.60;;;8.00;99.90;;;;;;5065446;28;20555;-54
2023/10/15 01:19:52;;;;;;;3.53;2.20;;;7.90;99.90;;;;;;5071410;28;20277;-54
2023/10/15 01:22:24;;;;;;;3.67;2.23;;;7.90;99.90;;;;;;5069496;28;20290;-53
2023/10/15 01:24:54;;;;;;;4.27;2.10;;;7.90;99.90;;;;;;5073892;28;20188;-52
2023/10/15 01:27:29;;;;;;;6.53;2.13;;;7.80;99.90;;;;;;5069471;28;20216;-53
2023/10/15 01:30:00;;;;;;;6.03;2.10;;;7.80;99.90;;;;;;5065087;28;20251;-53
2023/10/15 01:32:30;;;;;;;5.83;2.27;;;7.80;99.90;;;;;;5067561;28;20221;-54
2023/10/15 01:35:01;;;;;;;3.47;2.07;;;7.80;99.90;;;;;;5070534;28;20248;-50
2023/10/15 01:37:36;;;;;;;5.03;2.27;;;7.80;99.90;;;;;;5072974;28;20376;-52
2023/10/15 01:40:26;;;;;;;2.80;2.60;;;7.80;99.90;;;;;;5065631;28;20642;-55
2023/10/15 01:42:55;;;;;;;1.97;1.80;;;7.80;99.90;;;;;;5065155;28;20212;-52
2023/10/15 01:45:31;;;;;;;2.00;1.90;;;7.90;99.90;;;;;;5065726;28;20231;-51
2023/10/15 01:48:13;;;;;;;5.17;2.07;;;8.00;99.90;;;;;;5068465;28;20226;-51
2023/10/15 01:50:49;;;;;;;3.13;1.90;;;8.10;99.90;;;;;;5065465;28;20214;-50
2023/10/15 01:53:23;;;;;;;2.60;2.33;;;8.10;99.90;;;;;;5066370;28;20220;-52
2023/10/15 01:55:59;;;;;;;1.90;1.80;;;8.10;99.90;;;;;;5060101;28;20222;-53
2023/10/15 01:58:31;;;;;;;1.90;1.80;;;8.10;99.90;;;;;;5065356;28;20188;-54
2023/10/15 02:01:09;;;;;;;2.50;1.87;;;8.10;99.90;;;;;;5074379;28;20226;-55
2023/10/15 02:03:38;;;;;;;2.87;1.97;;;8.10;99.90;;;;;;5072182;28;20686;-52
2023/10/15 02:06:07;;;;;;;2.40;1.70;;;8.20;99.90;;;;;;5068926;28;20215;-55
2023/10/15 02:08:38;;;;;;;3.63;2.00;;;8.20;99.90;;;;;;5070545;28;20216;-54
2023/10/15 02:11:21;;;;;;;5.13;1.90;;;8.20;99.90;;;;;;5066790;28;20224;-54
2023/10/15 02:13:51;;;;;;;3.57;1.50;;;8.20;99.90;;;;;;5066723;28;20231;-53
2023/10/15 02:16:25;;;;;;;5.77;1.90;;;8.30;99.90;;;;;;5070621;28;20192;-54
2023/10/15 02:18:56;;;;;;;3.60;1.87;;;8.20;99.90;;;;;;5071596;28;20195;-53
2023/10/15 02:21:31;;;;;;;4.93;1.97;;;8.30;99.90;;;;;;5065599;28;20224;-54
2023/10/15 02:24:08;;;;;;;1.90;1.80;;;8.20;99.90;;;;;;5062524;28;20224;-53
2023/10/15 02:26:39;;;;;;;3.33;1.97;;;8.30;99.90;;;;;;5069965;28;20261;-55
2023/10/15 02:29:22;;;;;;;5.23;1.97;;;8.30;99.90;;;;;;5069964;28;20223;-55
2023/10/15 02:31:50;;;;;;;2.87;2.07;;;8.30;99.90;;;;;;5057241;28;20683;-55
2023/10/15 02:34:24;;;;;;;1.97;1.87;;;8.30;99.90;;;;;;5046965;28;20311;-55
2023/10/15 02:36:53;;;;;;;4.90;2.00;;;8.30;99.90;;;;;;5066802;28;20195;-53
2023/10/15 02:39:22;;;;;;;3.60;1.73;;;8.30;99.90;;;;;;5063255;28;20394;-50
2023/10/15 02:41:52;;;;;;;3.60;1.70;;;8.30;99.90;;;;;;5060566;28;20215;-53
2023/10/15 02:44:21;;;;;;;2.03;1.93;;;8.20;99.90;;;;;;5070327;28;20225;-51
2023/10/15 02:46:50;;;;;;;1.83;1.73;;;8.20;99.90;;;;;;5071398;28;20365;-53
2023/10/15 02:49:18;;;;;;;4.40;2.00;;;8.20;99.90;;;;;;5070203;28;20276;-52
2023/10/15 02:51:48;;;;;;;2.83;1.70;;;8.20;99.90;;;;;;5067590;28;20307;-55
2023/10/15 02:54:27;;;;;;;2.10;1.60;;;8.20;99.90;;;;;;5064202;28;20211;-51
2023/10/15 02:56:59;;;;;;;3.70;1.80;;;8.20;99.90;;;;;;5063598;28;20326;-51
2023/10/15 02:59:31;;;;;;;1.63;1.47;;;8.20;99.90;;;;;;5067852;28;20212;-51
2023/10/15 03:02:06;;;;;;;1.40;1.40;;;8.20;99.90;;;;;;5070445;28;20326;-51
2023/10/15 03:04:38;;;;;;;2.30;1.60;;;8.20;99.90;;;;;;5071392;28;20187;-51
2023/10/15 03:07:19;;;;;;;2.77;1.80;;;8.20;99.90;;;;;;5067948;28;20184;-54
2023/10/15 03:09:51;;;;;;;1.47;1.37;;;8.20;99.90;;;;;;5067540;28;20216;-51
2023/10/15 03:12:21;;;;;;;1.60;1.50;;;8.20;99.90;;;;;;5067705;28;20220;-54
2023/10/15 03:14:51;;;;;;;2.00;1.50;;;8.20;99.90;;;;;;5063841;28;20677;-50
2023/10/15 03:17:25;;;;;;;2.13;1.37;;;8.20;99.90;;;;;;5067973;28;20226;-54
2023/10/15 03:19:55;;;;;;;2.03;1.50;;;8.20;99.90;;;;;;5069286;28;20321;-51
2023/10/15 03:22:24;;;;;;;2.43;1.30;;;8.30;99.90;;;;;;5068059;28;20204;-51
2023/10/15 03:24:56;;;;;;;2.47;1.80;;;8.30;99.90;;;;;;5066291;28;20200;-49
2023/10/15 03:27:27;;;;;;;3.07;1.40;;;8.30;99.90;;;;;;5070383;28;20298;-50
2023/10/15 03:29:56;;;;;;;1.40;1.30;;;8.30;99.90;;;;;;5068404;28;20223;-50
2023/10/15 03:32:30;;;;;;;2.97;1.40;;;8.20;99.90;;;;;;5068939;28;20226;-53
2023/10/15 03:35:05;;;;;;;2.73;1.60;;;8.20;99.90;;;;;;5067952;28;20301;-53
2023/10/15 03:37:38;;;;;;;1.70;1.47;;;8.20;99.90;;;;;;5066630;28;20207;-52
2023/10/15 03:40:13;;;;;;;4.27;1.80;;;8.10;99.90;;;;;;5069626;28;20200;-51
2023/10/15 03:42:44;;;;;;;2.13;1.70;;;8.10;99.90;;;;;;5069099;28;20219;-54
2023/10/15 03:45:26;;;;;;;1.10;1.10;;;8.00;99.90;;;;;;5068975;28;20644;-53
2023/10/15 03:47:57;;;;;;;2.87;1.47;;;8.00;99.90;;;;;;5062645;28;20250;-52
2023/10/15 03:50:29;;;;;;;1.60;1.40;;;8.00;99.90;;;;;;5061758;28;20289;-52
2023/10/15 03:52:57;;;;;;;1.47;1.30;;;8.00;99.90;;;;;;5067712;28;20232;-52
2023/10/15 03:55:26;;;;;;;2.97;1.43;;;8.00;99.90;;;;;;5064890;28;20213;-50
2023/10/15 03:57:58;;;;;;;1.80;1.50;;;8.00;99.90;;;;;;5068484;28;20697;-50
2023/10/15 04:00:35;;;;;;;2.57;1.50;;;8.00;99.90;;;;;;5068843;28;20728;-53
2023/10/15 04:03:18;;;;;;;2.77;1.60;;;8.00;99.90;;;;;;5060055;28;20629;-50
2023/10/15 04:05:54;;;;;;;1.80;1.70;;;8.00;99.90;;;;;;5065746;28;20224;-50
2023/10/15 04:08:25;;;;;;;1.33;1.30;;;7.90;99.90;;;;;;5068081;28;20230;-53
2023/10/15 04:10:56;;;;;;;3.20;1.77;;;7.90;99.90;;;;;;5066284;28;20224;-51
2023/10/15 04:13:27;;;;;;;2.27;1.50;;;7.90;99.90;;;;;;5064144;28;20670;-52
2023/10/15 04:15:56;;;;;;;2.87;1.60;;;7.90;99.90;;;;;;5069364;28;20207;-50
2023/10/15 04:18:26;;;;;;;2.67;1.90;;;7.90;99.90;;;;;;5068485;28;20224;-53
2023/10/15 04:20:56;;;;;;;1.57;1.47;;;7.90;99.90;;;;;;5062814;28;20293;-52
2023/10/15 04:23:31;;;;;;;1.60;1.50;;;7.90;99.90;;;;;;5069157;28;20216;-51
2023/10/15 04:26:04;;;;;;;4.03;1.70;;;7.80;99.90;;;;;;5065759;28;20219;-52
2023/10/15 04:28:36;;;;;;;1.73;1.73;;;7.80;99.90;;;;;;5063999;28;20727;-50
2023/10/15 04:31:11;;;;;;;2.30;1.97;;;7.90;99.90;;;;;;5067013;28;20234;-53
2023/10/15 04:33:41;;;;;;;3.13;1.90;;;7.80;99.90;;;;;;5066106;28;20235;-53
2023/10/15 04:36:10;;;;;;;2.10;1.60;;;7.80;99.90;;;;;;5068043;28;20253;-51
2023/10/15 04:38:38;;;;;;;1.80;1.70;;;7.80;99.90;;;;;;5065501;28;20243;-54
2023/10/15 04:41:06;;;;;;;5.10;2.10;;;7.80;99.90;;;;;;5059849;28;20224;-50
2023/10/15 04:43:42;;;;;;;3.60;1.80;;;7.80;99.90;;;;;;5066428;28;20207;-54
2023/10/15 04:46:17;;;;;;;4.03;1.80;;;7.80;99.90;;;;;;5059184;28;20581;-53
2023/10/15 04:48:46;;;;;;;5.57;2.00;;;7.80;99.90;;;;;;5063771;28;20285;-53
2023/10/15 04:51:14;;;;;;;2.03;1.90;;;7.80;99.90;;;;;;5063470;28;20616;-54
2023/10/15 04:53:44;;;;;;;2.83;1.83;;;7.80;99.90;;;;;;5063886;28;20290;-53
2023/10/15 04:56:13;;;;;;;2.50;1.80;;;7.70;99.90;;;;;;5072206;28;20318;-52
2023/10/15 04:58:43;;;;;;;2.07;1.60;;;7.70;99.90;;;;;;5070997;28;20223;-52
2023/10/15 05:01:12;;;;;;;4.73;1.87;;;7.70;99.90;;;;;;5066898;28;20627;-53
2023/10/15 05:03:45;;;;;;;2.60;1.80;;;7.70;99.90;;;;;;5070514;28;20678;-51
2023/10/15 05:06:14;;;;;;;2.53;1.90;;;7.70;99.90;;;;;;5066142;28;20216;-53
2023/10/15 05:08:47;;;;;;;1.80;1.70;;;7.60;99.90;;;;;;5070352;28;20689;-52
2023/10/15 05:11:21;;;;;;;4.00;2.00;;;7.60;99.90;;;;;;5066032;28;20225;-55
2023/10/15 05:13:52;;;;;;;3.67;2.00;;;7.60;99.90;;;;;;5072064;28;20229;-54
2023/10/15 05:16:21;;;;;;;4.47;2.00;;;7.60;99.90;;;;;;5070091;28;20188;-51
2023/10/15 05:18:49;;;;;;;6.80;2.33;;;7.50;99.90;;;;;;5070563;28;20196;-51
2023/10/15 05:21:18;;;;;;;2.47;2.10;;;7.50;99.90;;;;;;5070162;28;20224;-53
2023/10/15 05:23:46;;;;;;;2.73;2.10;;;7.50;99.90;;;;;;5072132;28;20732;-53
2023/10/15 05:26:19;;;;;;;3.53;2.20;;;7.50;99.90;;;;;;5073305;28;20736;-52
2023/10/15 05:28:48;;;;;;;3.67;2.10;;;7.50;99.90;;;;;;5073477;28;20231;-54
2023/10/15 05:31:18;;;;;;;2.43;2.23;;;7.50;99.90;;;;;;5074393;28;20192;-51
2023/10/15 05:33:46;;;;;;;3.67;2.40;;;7.50;99.90;;;;;;5067774;28;20216;-53
2023/10/15 05:36:14;;;;;;;4.63;2.20;;;7.50;99.90;;;;;;5072655;28;20220;-51
2023/10/15 05:38:43;;;;;;;3.90;2.00;;;7.40;99.90;;;;;;5062276;28;20242;-54
2023/10/15 05:41:11;;;;;;;6.87;2.10;;;7.40;99.90;;;;;;5066023;28;20656;-53
2023/10/15 05:43:40;;;;;;;3.80;1.93;;;7.40;99.90;;;;;;5068053;28;20227;-54
2023/10/15 05:46:12;;;;;;;3.20;1.90;;;7.40;99.90;;;;;;5069088;28;20230;-54
2023/10/15 05:48:42;;;;;;;4.43;1.90;;;7.30;99.90;;;;;;5068498;28;20221;-54
2023/10/15 05:51:10;;;;;;;2.70;2.10;;;7.30;99.90;;;;;;5068337;28;20245;-52
2023/10/15 05:53:39;;;;;;;3.80;2.27;;;7.30;99.90;;;;;;5063160;28;20224;-54
2023/10/15 05:56:08;;;;;;;4.03;2.07;;;7.30;99.90;;;;;;5064636;28;20228;-53
2023/10/15 05:58:37;;;;;;;5.53;2.20;;;7.30;99.90;;;;;;5072135;28;20192;-52
2023/10/15 06:01:06;;;;;;;6.77;2.00;;;7.30;99.90;;;;;;5068603;28;20249;-53
2023/10/15 06:03:35;;;;;;;4.33;1.90;;;7.20;99.90;;;;;;5066118;28;20324;-54
2023/10/15 06:06:06;;;;;;;4.93;2.43;;;7.20;99.90;;;;;;5066897;28;20216;-54
2023/10/15 06:08:34;;;;;;;2.93;2.03;;;7.20;99.90;;;;;;5064954;28;20234;-55
2023/10/15 06:11:03;;;;;;;3.93;1.87;;;7.20;99.90;;;;;;5067238;28;20216;-54
2023/10/15 06:13:34;;;;;;;3.73;2.00;;;7.20;99.90;;;;;;5069727;28;20203;-55
2023/10/15 06:16:04;;;;;;;7.10;1.97;;;7.10;99.90;;;;;;5066285;28;20200;-51
2023/10/15 06:18:32;;;;;;;2.30;2.10;;;7.20;99.90;;;;;;5068004;28;20311;-55
2023/10/15 06:21:01;;;;;;;3.60;2.10;;;7.10;99.90;;;;;;5066568;28;20263;-52
2023/10/15 06:23:32;;;;;;;3.47;1.90;;;7.10;99.90;;;;;;5065625;28;20223;-55
2023/10/15 06:26:00;;;;;;;4.93;2.10;;;7.10;99.90;;;;;;5061508;28;20230;-53
2023/10/15 06:28:28;;;;;;;6.73;2.33;;;7.10;99.90;;;;;;5065303;28;20192;-52
2023/10/15 06:30:57;;;;;;;10.20;2.37;;;7.10;99.90;;;;;;5069582;28;20235;-54
2023/10/15 06:33:25;;;;;;;2.73;1.90;;;7.10;99.90;;;;;;5069437;28;20323;-52
2023/10/15 06:35:54;;;;;;;4.63;2.40;;;7.10;99.90;;;;;;5065730;28;20694;-54
2023/10/15 06:38:26;;;;;;;5.83;2.20;;;7.10;99.90;;;;;;5069688;28;20302;-55
2023/10/15 06:40:56;;;;;;;3.83;2.10;;;7.10;99.90;;;;;;5062809;28;20223;-53
2023/10/15 06:43:24;;;;;;;3.07;2.17;;;7.10;99.90;;;;;;5063114;28;20192;-52
2023/10/15 06:45:53;;;;;;;5.03;2.20;;;7.10;99.90;;;;;;5067471;28;20193;-52
2023/10/15 06:48:22;;;;;;;4.00;2.13;;;7.20;99.90;;;;;;5070550;28;20220;-52
2023/10/15 06:50:51;;;;;;;5.80;2.13;;;7.20;99.90;;;;;;5064844;28;20312;-53
2023/10/15 06:53:19;;;;;;;6.47;2.07;;;7.30;99.90;;;;;;5069702;28;20306;-52
2023/10/15 06:55:48;;;;;;;3.53;2.10;;;7.30;99.90;;;;;;5066497;28;20249;-51
2023/10/15 06:58:18;;;;;;;6.70;2.40;;;7.40;99.90;;;;;;5068692;28;20196;-54
2023/10/15 07:00:46;;;;;;;7.23;2.83;;;7.40;99.90;;;;;;5069892;28;20242;-51
2023/10/15 07:03:15;;;;;;;3.47;3.07;;;7.50;99.90;;;;;;5066421;28;20274;-53
2023/10/15 07:05:45;;;;;;;5.30;2.63;;;7.60;99.90;;;;;;5067333;28;20212;-52
2023/10/15 07:08:13;;;;;;;6.13;2.93;;;7.60;99.90;;;;;;5068649;28;20219;-54
2023/10/15 07:10:42;;;;;;;5.37;2.17;;;7.70;99.90;;;;;;5066805;28;20247;-54
2023/10/15 07:13:11;;;;;;;5.47;2.30;;;7.90;99.90;;;;;;5066511;28;20512;-54
2023/10/15 07:15:40;;;;;;;4.87;2.50;;;8.00;99.90;;;;;;5066911;28;20627;-53
2023/10/15 07:18:09;;;;;;;7.00;2.63;;;8.20;99.90;;;;;;5066693;28;20211;-53
2023/10/15 07:20:37;;;;;;;2.53;2.30;;;8.30;99.90;;;;;;5068070;28;20235;-52
2023/10/15 07:23:06;;;;;;;4.67;2.50;;;8.50;99.90;;;;;;5066075;28;20571;-54
2023/10/15 07:25:34;;;;;;;4.87;2.33;;;8.60;99.90;;;;;;5070898;28;20534;-56
2023/10/15 07:28:04;;;;;;;4.07;2.17;;;8.80;99.90;;;;;;5070617;28;20241;-53
2023/10/15 07:30:33;;;;;;;2.97;1.90;;;9.00;99.90;;;;;;5070531;28;20269;-54
2023/10/15 07:33:03;;;;;;;4.93;2.03;;;9.20;99.90;;;;;;5064656;28;20323;-54
2023/10/15 07:35:32;;;;;;;4.53;2.00;;;9.40;99.90;;;;;;5061598;28;20220;-55
2023/10/15 07:38:02;;;;;;;4.27;2.03;;;9.60;6.40;;;;;;5065213;28;20228;-55
2023/10/15 07:40:33;;;;;;;2.20;2.00;;;9.70;1.00;;;;;;5062255;28;20196;-55
2023/10/15 07:43:02;;;;;;;5.33;1.90;;;9.80;1.00;;;;;;5067018;28;20223;-56
2023/10/15 07:45:33;;;;;;;8.63;2.63;;;9.80;1.00;;;;;;5067044;28;20211;-53
2023/10/15 07:48:07;;;;;;;3.50;1.70;;;9.90;1.00;;;;;;5064898;28;20227;-54
2023/10/15 07:50:36;;;;;;;4.20;1.97;;;10.00;1.00;;;;;;5067275;28;20214;-53
2023/10/15 07:53:05;;;;;;;4.47;2.20;;;10.00;1.00;;;;;;5066298;28;20220;-55
2023/10/15 07:55:34;;;;;;;5.47;2.20;;;10.10;1.00;;;;;;5064328;28;20193;-55
2023/10/15 07:58:02;;;;;;;5.97;1.97;;;10.10;1.00;;;;;;5063447;28;20192;-55
2023/10/15 08:00:30;;;;;;;7.07;2.27;;;10.20;1.00;;;;;;5070993;28;20302;-55
2023/10/15 08:03:00;;;;;;;6.10;1.93;;;10.10;1.00;;;;;;5065145;28;20220;-53
2023/10/15 08:05:32;;;;;;;4.90;2.30;;;10.20;1.00;;;;;;5061874;28;20309;-54
2023/10/15 08:08:04;;;;;;;4.50;1.97;;;10.20;1.00;;;;;;5065204;28;20264;-56
2023/10/15 08:10:34;;;;;;;3.93;1.73;;;10.30;1.00;;;;;;5065863;28;20192;-55
2023/10/15 08:13:06;;;;;;;2.50;2.00;;;10.40;1.00;;;;;;5063530;28;20280;-54
2023/10/15 08:15:36;;;;;;;3.20;2.03;;;10.50;1.00;;;;;;5067949;28;20216;-55
2023/10/15 08:18:05;;;;;;;4.63;2.20;;;10.50;1.00;;;;;;5062809;28;20223;-55
2023/10/15 08:20:35;;;;;;;4.20;2.13;;;10.60;1.00;;;;;;5061151;28;20248;-54
2023/10/15 08:23:04;;;;;;;9.77;2.40;;;10.60;1.00;;;;;;5063823;28;20219;-56
2023/10/15 08:25:33;;;;;;;4.20;1.87;;;10.70;1.00;;;;;;5067442;28;20716;-55
2023/10/15 08:28:07;;;;;;;5.03;2.07;;;10.80;1.00;;;;;;5062727;28;20720;-55
2023/10/15 08:30:36;;;;;;;4.00;2.37;;;10.90;1.00;;;;;;5065756;28;20743;-53
2023/10/15 08:33:10;;;;;;;4.60;1.90;;;10.90;1.00;;;;;;5067290;28;20221;-54
2023/10/15 08:35:41;;;;;;;7.27;2.20;;;10.90;1.00;;;;;;5069814;28;20215;-54
2023/10/15 08:38:12;;;;;;;6.43;2.07;;;11.00;1.00;;;;;;5073150;28;20219;-53
2023/10/15 08:40:45;;;;;;;7.57;2.30;;;10.90;1.00;;;;;;5070698;28;20224;-54
2023/10/15 08:43:22;;;;;;;3.73;2.00;;;10.90;1.00;;;;;;5067327;28;20605;-54
2023/10/15 08:45:52;;;;;;;5.70;2.07;;;11.00;1.00;;;;;;5066961;28;20582;-54
2023/10/15 08:48:25;;;;;;;2.97;2.17;;;11.00;1.00;;;;;;5067376;28;20216;-56
2023/10/15 08:50:58;;;;;;;4.63;2.00;;;11.20;1.00;;;;;;5070926;28;20230;-52
2023/10/15 08:53:28;;;;;;;5.57;2.20;;;11.30;1.00;;;;;;5068707;28;20212;-55
2023/10/15 08:55:59;;;;;;;8.43;2.10;;;11.30;1.00;;;;;;5069663;28;20224;-53
2023/10/15 08:58:29;;;;;;;5.70;2.23;;;11.30;1.00;;;;;;5070989;28;20322;-55
2023/10/15 09:01:00;;;;;;;5.50;1.90;;;11.40;1.00;;;;;;5068201;28;20185;-54
2023/10/15 09:03:29;;;;;;;4.10;2.23;;;11.50;1.00;;;;;;5065558;28;20307;-54
2023/10/15 09:06:01;;;;;;;3.13;1.90;;;11.50;1.00;;;;;;5064671;28;20230;-54
2023/10/15 09:08:30;;;;;;;6.57;2.17;;;11.60;99.90;;;;;;5067480;28;20834;-53
2023/10/15 09:10:59;;;;;;;8.80;2.27;;;11.70;99.90;;;;;;5073393;28;20224;-55
2023/10/15 09:13:28;;;;;;;6.10;2.17;;;11.80;1.00;;;;;;5055527;28;20192;-54
2023/10/15 09:15:56;;;;;;;10.97;2.77;;;11.90;1.00;;;;;;5066500;28;20222;-55
2023/10/15 09:18:26;;;;;;;3.00;2.03;;;11.90;1.00;;;;;;5064566;28;20227;-53
2023/10/15 09:20:58;;;;;;;5.80;2.10;;;12.10;1.00;;;;;;5069774;28;20239;-56
2023/10/15 09:23:35;;;;;;;9.37;1.80;;;12.10;99.90;;;;;;5066307;28;20235;-53
2023/10/15 09:26:04;;;;;;;6.10;2.17;;;12.10;99.90;;;;;;5073656;28;20234;-55
2023/10/15 09:28:33;;;;;;;3.40;1.83;;;12.10;99.90;;;;;;5065435;28;20291;-55
2023/10/15 09:31:05;;;;;;;7.80;1.80;;;12.20;99.90;;;;;;5067753;28;20201;-53
2023/10/15 09:33:35;;;;;;;4.67;2.00;;;12.20;99.90;;;;;;5063688;28;20291;-56
2023/10/15 09:36:05;;;;;;;6.93;2.10;;;12.30;99.90;;;;;;5070316;28;20212;-55
2023/10/15 09:38:36;;;;;;;5.47;1.90;;;12.40;99.90;;;;;;5065021;28;20251;-55
2023/10/15 09:41:06;;;;;;;5.60;1.90;;;12.40;99.90;;;;;;5059140;28;20220;-55
2023/10/15 09:43:35;;;;;;;2.43;1.70;;;12.50;71.10;;;;;;5041533;28;20211;-53
2023/10/15 09:46:05;;;;;;;5.17;2.07;;;12.60;99.90;;;;;;5063071;28;20565;-53
2023/10/15 09:48:37;;;;;;;8.67;2.50;;;12.70;1.00;;;;;;5067627;28;20705;-53
2023/10/15 09:51:07;;;;;;;5.00;1.97;;;12.90;44.80;;;;;;5068608;28;20313;-56
2023/10/15 09:53:41;;;;;;;5.23;1.90;;;13.20;1.00;;;;;;5069213;28;20228;-54
2023/10/15 09:56:12;;;;;;;6.07;1.70;;;13.30;1.00;;;;;;5057872;28;20228;-55
2023/10/15 09:58:42;;;;;;;6.73;1.50;;;13.40;1.00;;;;;;5049902;28;20232;-55
2023/10/15 10:01:25;;;;;;;6.00;1.77;;;13.40;1.00;;;;;;5063436;28;20199;-52
2023/10/15 10:04:25;;;;;;;7.00;2.00;;;13.20;1.00;;;;;;5059827;28;20624;-54
2023/10/15 10:07:21;;;;;;;5.07;1.80;;;12.90;99.90;;;;;;5054394;28;20278;-54
2023/10/15 10:10:39;;;;;;;8.33;2.23;;;12.90;99.90;;;;;;5066994;28;20285;-54
2023/10/15 10:13:42;;;;;;;3.53;1.70;;;13.10;39.30;;;;;;4980546;28;21048;-55
2023/10/15 10:16:19;;;;;;;5.20;1.73;;;13.20;1.00;;;;;;4980074;28;20210;-55
2023/10/15 10:18:49;;;;;;;3.50;1.77;;;13.30;1.00;;;;;;5051306;28;20315;-54
2023/10/15 10:21:19;;;;;;;4.27;1.43;;;13.60;1.00;;;;;;5065706;28;20578;-53
2023/10/15 10:23:52;;;;;;;1.93;1.50;;;13.50;99.90;;;;;;5065208;28;20254;-55
2023/10/15 10:26:25;;;;;;;1.73;1.60;;;13.50;99.90;;;;;;5064947;28;20217;-53
2023/10/15 10:28:55;;;;;;;5.40;1.77;;;13.60;1.00;;;;;;5068361;28;20216;-52
2023/10/15 10:31:23;;;;;;;2.07;1.40;;;13.60;75.40;;;;;;5064084;28;20276;-55
2023/10/15 10:33:54;;;;;;;4.50;1.50;;;13.70;26.10;;;;;;5063502;28;20216;-54
2023/10/15 10:36:25;;;;;;;2.83;1.43;;;13.90;99.90;;;;;;5060759;28;20236;-53
2023/10/15 10:38:59;;;;;;;1.70;1.50;;;13.90;99.90;;;;;;5067200;28;20317;-53
2023/10/15 10:41:40;;;;;;;1.40;1.30;;;13.80;1.00;;;;;;5062828;28;20220;-52
2023/10/15 10:44:10;;;;;;;3.80;1.53;;;13.90;1.00;;;;;;5061848;28;20686;-54
2023/10/15 10:46:56;;;;;;;4.27;1.40;;;14.10;1.00;;;;;;5067006;28;20256;-51
2023/10/15 10:49:29;;;;;;;4.53;1.47;;;14.10;99.90;;;;;;5067200;28;20186;-54
2023/10/15 10:52:15;;;;;;;4.17;1.50;;;14.10;1.00;;;;;;5066278;28;20196;-53
2023/10/15 10:54:45;;;;;;;3.33;1.57;;;14.00;99.90;;;;;;5068236;28;20212;-53
2023/10/15 10:57:18;;;;;;;1.60;1.23;;;14.10;1.00;;;;;;5069528;28;20221;-52
2023/10/15 10:59:48;;;;;;;2.40;1.50;;;14.20;96.30;;;;;;5062358;28;20226;-53
2023/10/15 11:02:18;;;;;;;4.90;1.40;;;14.60;99.90;;;;;;5067771;28;20216;-53
2023/10/15 11:04:47;;;;;;;2.77;1.33;;;14.90;1.00;;;;;;5067027;28;20229;-54
2023/10/15 11:07:16;;;;;;;3.50;1.20;;;15.10;1.00;;;;;;5067211;28;20193;-51
2023/10/15 11:09:45;;;;;;;4.37;1.37;;;15.30;99.90;;;;;;5056947;28;20270;-54
2023/10/15 11:12:18;;;;;;;4.20;1.70;;;15.50;99.90;;;;;;5068140;28;20219;-54
2023/10/15 11:14:46;;;;;;;8.17;1.60;;;15.40;1.00;;;;;;5068053;28;20238;-54
2023/10/15 11:17:15;;;;;;;3.23;1.50;;;15.10;99.90;;;;;;5062004;28;20221;-53
2023/10/15 11:19:44;;;;;;;5.00;1.47;;;14.60;1.00;;;;;;5064973;28;20218;-54
2023/10/15 11:22:14;;;;;;;6.87;1.90;;;14.30;99.90;;;;;;5071029;28;20210;-57
2023/10/15 11:24:43;;;;;;;4.13;1.70;;;14.00;1.00;;;;;;5070729;28;20645;-58
2023/10/15 11:27:12;;;;;;;5.43;1.70;;;13.70;99.90;;;;;;5069807;28;20240;-58
2023/10/15 11:29:43;;;;;;;4.00;2.03;;;13.60;1.00;;;;;;5071622;28;20212;-57
2023/10/15 11:32:12;;;;;;;4.77;1.67;;;13.40;1.00;;;;;;5070681;28;20232;-57
2023/10/15 11:34:41;;;;;;;3.83;1.53;;;13.30;99.90;;;;;;5061653;28;20734;-58
2023/10/15 11:37:10;;;;;;;2.43;1.70;;;13.10;1.00;;;;;;5067080;28;20199;-57
2023/10/15 11:39:42;;;;;;;4.97;1.70;;;12.90;99.90;;;;;;5062392;28;20227;-57
2023/10/15 11:42:12;;;;;;;2.83;1.57;;;12.80;99.90;;;;;;5067341;28;20251;-57
2023/10/15 11:44:44;;;;;;;1.53;1.43;;;12.60;99.90;;;;;;5066545;28;20216;-57
2023/10/15 11:47:19;;;;;;;4.87;1.60;;;12.50;1.00;;;;;;5066711;28;20307;-57
2023/10/15 11:49:50;;;;;;;2.80;1.40;;;12.40;1.00;;;;;;5071642;28;20227;-56
2023/10/15 11:52:22;;;;;;;4.70;1.73;;;12.30;1.00;;;;;;5067214;28;20523;-56
2023/10/15 11:54:50;;;;;;;2.20;1.50;;;12.40;1.00;;;;;;5061520;28;20621;-58
2023/10/15 11:57:23;;;;;;;3.77;1.50;;;12.30;1.00;;;;;;5065830;28;20221;-57
2023/10/15 11:59:54;;;;;;;2.27;1.50;;;12.20;1.00;;;;;;5068513;28;20315;-58
2023/10/15 12:02:27;;;;;;;3.90;1.83;;;12.00;1.00;;;;;;5061978;28;20231;-58
2023/10/15 12:05:01;;;;;;;3.23;1.80;;;11.90;1.00;;;;;;5066610;28;20235;-58
2023/10/15 12:07:30;;;;;;;2.83;1.40;;;11.80;1.00;;;;;;5069363;28;20189;-58
2023/10/15 12:09:59;;;;;;;4.40;1.80;;;11.90;1.00;;;;;;5068492;28;20202;-57
2023/10/15 12:12:28;;;;;;;1.87;1.50;;;12.10;1.00;;;;;;5065960;28;20220;-57
2023/10/15 12:14:58;;;;;;;6.73;1.70;;;12.20;1.00;;;;;;5068455;28;20311;-56
2023/10/15 12:17:26;;;;;;;4.47;1.60;;;12.30;1.00;;;;;;5063440;28;20631;-58
2023/10/15 12:19:55;;;;;;;3.03;1.60;;;12.40;1.00;;;;;;5067505;28;20224;-58
2023/10/15 12:22:43;;;;;;;3.90;1.50;;;12.50;1.00;;;;;;5073205;28;20228;-58
2023/10/15 12:25:12;;;;;;;5.00;2.07;;;12.70;1.00;;;;;;5069502;28;20197;-58
2023/10/15 12:27:40;;;;;;;5.00;1.80;;;13.00;1.00;;;;;;5076077;28;20221;-58
2023/10/15 12:30:19;;;;;;;1.93;1.47;;;13.30;1.00;;;;;;5066305;28;20222;-57
2023/10/15 12:32:48;;;;;;;3.63;1.60;;;13.60;99.90;;;;;;5072172;28;20617;-57
2023/10/15 12:35:19;;;;;;;2.70;1.43;;;13.60;99.90;;;;;;5073602;28;20210;-58
2023/10/15 12:37:48;;;;;;;1.70;1.10;;;13.50;99.90;;;;;;5074911;28;20231;-57
2023/10/15 12:40:21;;;;;;;4.53;1.10;;;13.30;99.90;;;;;;5070725;28;20251;-58
2023/10/15 12:42:52;;;;;;;6.33;1.43;;;13.10;99.90;;;;;;5064239;28;20223;-57
2023/10/15 12:45:22;;;;;;;2.00;1.20;;;12.90;1.00;;;;;;5063858;28;20690;-57
2023/10/15 12:47:51;;;;;;;1.57;1.47;;;12.70;99.90;;;;;;5070889;28;20319;-58
2023/10/15 12:50:19;;;;;;;4.03;1.27;;;12.60;1.00;;;;;;5069965;28;20240;-58
2023/10/15 12:52:48;;;;;;;1.67;1.20;;;12.40;1.00;;;;;;5067911;28;20250;-58
2023/10/15 12:55:18;;;;;;;2.03;1.53;;;12.30;1.00;;;;;;5069282;28;20185;-58
2023/10/15 12:57:47;;;;;;;3.00;1.23;;;12.30;1.00;;;;;;5049131;28;20213;-58
2023/10/15 13:00:18;;;;;;;2.60;1.20;;;12.40;1.00;;;;;;5065312;28;20902;-58
2023/10/15 13:02:49;;;;;;;1.90;1.13;;;12.50;1.00;;;;;;5065297;28;20224;-58
2023/10/15 13:05:19;;;;;;;4.00;1.20;;;12.40;1.00;;;;;;5070299;28;20283;-58
2023/10/15 13:07:48;;;;;;;2.97;1.70;;;12.40;1.00;;;;;;5068772;28;20224;-58
2023/10/15 13:10:18;;;;;;;3.93;1.53;;;12.30;1.00;;;;;;5066572;28;20189;-59
2023/10/15 13:12:48;;;;;;;2.33;1.50;;;12.40;1.00;;;;;;5067874;28;20216;-58
2023/10/15 13:15:18;;;;;;;2.83;1.20;;;12.50;1.00;;;;;;5066093;28;20312;-58
2023/10/15 13:17:48;;;;;;;1.37;1.27;;;12.40;1.00;;;;;;5061667;28;20227;-58